Time;durP1;ratioP1;P1;durP2;ratioP2;P2;SDS_P1;SDS_P2;PMS_P1;PMS_P2;Temp;Humidity;BMP_temperature;BMP_pressure;BME280_temperature;BME280_humidity;BME280_pressure;Samples;Min_cycle;Max_cycle;Signal;HPM_P1;HPM_P2
2022/03/31 00:00:32;;;;;;;4.70;0.90;;;;;;;;;;5052069;28;20040;-79
2022/03/31 00:02:59;;;;;;;3.50;0.98;;;;;;;;;;5068256;28;20040;-79
2022/03/31 00:05:25;;;;;;;8.05;1.08;;;;;;;;;;5068112;28;20040;-79
2022/03/31 00:07:56;;;;;;;2.60;0.95;;;;;;;;;;5052871;28;20381;-79
2022/03/31 00:10:30;;;;;;;3.88;1.10;;;;;;;;;;5070291;28;20058;-79
2022/03/31 00:12:57;;;;;;;4.35;1.27;;;;;;;;;;5056022;28;20129;-79
2022/03/31 00:15:24;;;;;;;4.07;1.42;;;;;;;;;;5055359;28;20028;-79
2022/03/31 00:17:50;;;;;;;4.25;1.17;;;;;;;;;;5072247;28;20128;-80
2022/03/31 00:20:16;;;;;;;4.05;1.13;;;;;;;;;;5073226;28;20039;-79
2022/03/31 00:22:42;;;;;;;7.65;1.15;;;;;;;;;;5038904;28;20123;-80
2022/03/31 00:25:10;;;;;;;4.00;1.08;;;;;;;;;;5054757;28;20037;-79
2022/03/31 00:27:37;;;;;;;3.63;0.90;;;;;;;;;;5072356;28;20380;-79
2022/03/31 00:30:05;;;;;;;6.22;1.52;;;;;;;;;;5071631;28;20106;-79
2022/03/31 00:32:31;;;;;;;4.13;1.00;;;;;;;;;;5073117;28;20072;-79
2022/03/31 00:34:57;;;;;;;2.63;1.00;;;;;;;;;;5071653;28;20127;-80
2022/03/31 00:37:23;;;;;;;5.05;1.05;;;;;;;;;;5055102;28;20399;-80
2022/03/31 00:39:49;;;;;;;2.25;0.80;;;;;;;;;;5071873;28;20053;-79
2022/03/31 00:42:16;;;;;;;3.03;1.00;;;;;;;;;;5071691;28;20036;-79
2022/03/31 00:44:42;;;;;;;3.80;1.02;;;;;;;;;;5071674;28;20076;-79
2022/03/31 00:47:09;;;;;;;4.03;0.80;;;;;;;;;;5054678;28;20135;-80
2022/03/31 00:49:35;;;;;;;5.10;1.15;;;;;;;;;;5071585;28;20056;-79
2022/03/31 00:52:01;;;;;;;5.97;1.00;;;;;;;;;;5071354;28;20048;-79
2022/03/31 00:54:28;;;;;;;6.20;1.13;;;;;;;;;;5071579;28;20041;-79
2022/03/31 00:56:56;;;;;;;3.42;0.93;;;;;;;;;;5072884;28;20093;-79
2022/03/31 00:59:22;;;;;;;6.10;1.15;;;;;;;;;;5071142;28;20555;-79
2022/03/31 01:01:49;;;;;;;5.18;1.55;;;;;;;;;;5071530;28;20404;-79
2022/03/31 01:04:15;;;;;;;3.55;1.20;;;;;;;;;;5054371;28;20041;-78
2022/03/31 01:06:45;;;;;;;3.92;1.27;;;;;;;;;;5055126;28;20037;-79
2022/03/31 01:09:14;;;;;;;3.47;1.15;;;;;;;;;;5071158;28;20094;-78
2022/03/31 01:11:40;;;;;;;3.60;1.30;;;;;;;;;;5054436;28;20119;-78
2022/03/31 01:14:07;;;;;;;3.05;1.08;;;;;;;;;;5070690;28;20048;-78
2022/03/31 01:16:33;;;;;;;4.57;1.10;;;;;;;;;;5054940;28;20041;-78
2022/03/31 01:19:03;;;;;;;2.40;1.00;;;;;;;;;;5071055;28;20400;-78
2022/03/31 01:21:29;;;;;;;5.55;1.10;;;;;;;;;;5071194;28;20488;-78
2022/03/31 01:23:56;;;;;;;5.95;1.30;;;;;;;;;;5071143;28;20039;-78
2022/03/31 01:26:22;;;;;;;4.55;1.10;;;;;;;;;;5070422;28;20043;-78
2022/03/31 01:28:50;;;;;;;2.75;1.13;;;;;;;;;;5037705;28;20044;-79
2022/03/31 01:31:16;;;;;;;5.95;1.17;;;;;;;;;;5053266;28;20084;-79
2022/03/31 01:33:42;;;;;;;3.67;1.10;;;;;;;;;;5071083;28;20098;-78
2022/03/31 01:36:08;;;;;;;3.10;1.02;;;;;;;;;;5070549;28;20074;-79
2022/03/31 01:38:35;;;;;;;7.72;1.50;;;;;;;;;;5071006;28;20458;-79
2022/03/31 01:41:01;;;;;;;3.83;1.15;;;;;;;;;;5070789;28;20527;-79
2022/03/31 01:43:27;;;;;;;8.55;1.20;;;;;;;;;;5070984;28;20484;-78
2022/03/31 01:45:54;;;;;;;6.25;1.33;;;;;;;;;;5037618;28;20044;-78
2022/03/31 01:48:21;;;;;;;5.80;1.30;;;;;;;;;;5037458;28;20219;-79
2022/03/31 01:50:47;;;;;;;5.03;1.30;;;;;;;;;;5070075;28;20561;-79
2022/03/31 01:53:14;;;;;;;4.47;1.23;;;;;;;;;;5070309;28;20044;-79
2022/03/31 01:55:40;;;;;;;4.97;1.38;;;;;;;;;;5070469;28;20036;-78
2022/03/31 01:58:07;;;;;;;5.18;1.20;;;;;;;;;;5070259;28;20515;-79
2022/03/31 02:00:33;;;;;;;3.38;1.30;;;;;;;;;;5068728;28;20484;-78
2022/03/31 02:02:59;;;;;;;3.40;1.15;;;;;;;;;;5067217;28;20531;-78
2022/03/31 02:05:26;;;;;;;3.13;1.10;;;;;;;;;;5069195;28;20043;-78
2022/03/31 02:07:56;;;;;;;7.03;1.40;;;;;;;;;;5069896;28;20044;-79
2022/03/31 02:10:25;;;;;;;3.28;1.13;;;;;;;;;;5070018;28;20072;-79
2022/03/31 02:12:51;;;;;;;2.53;1.17;;;;;;;;;;5053865;28;20125;-79
2022/03/31 02:15:20;;;;;;;6.90;1.45;;;;;;;;;;5053296;28;20068;-79
2022/03/31 02:17:46;;;;;;;3.58;1.60;;;;;;;;;;5051359;28;20086;-78
2022/03/31 02:20:12;;;;;;;4.53;1.40;;;;;;;;;;5069708;28;20041;-78
2022/03/31 02:22:39;;;;;;;6.03;1.60;;;;;;;;;;5072352;28;20060;-78
2022/03/31 02:25:08;;;;;;;6.45;1.58;;;;;;;;;;5071272;28;20071;-79
2022/03/31 02:27:35;;;;;;;6.15;1.40;;;;;;;;;;5071865;28;20040;-79
2022/03/31 02:30:01;;;;;;;4.20;1.50;;;;;;;;;;5070965;28;20356;-76
2022/03/31 02:32:27;;;;;;;4.55;1.60;;;;;;;;;;5069372;28;20048;-79
2022/03/31 02:34:54;;;;;;;5.22;1.50;;;;;;;;;;5069611;28;20051;-79
2022/03/31 02:37:20;;;;;;;2.78;1.23;;;;;;;;;;5069592;28;20032;-78
2022/03/31 02:39:46;;;;;;;5.65;1.45;;;;;;;;;;5070873;28;20041;-79
2022/03/31 02:42:12;;;;;;;6.85;1.67;;;;;;;;;;5069627;28;20032;-78
2022/03/31 02:44:38;;;;;;;5.50;1.58;;;;;;;;;;5071749;28;20472;-78
2022/03/31 02:47:05;;;;;;;5.93;1.50;;;;;;;;;;5072857;28;20036;-78
2022/03/31 02:49:31;;;;;;;6.50;1.60;;;;;;;;;;5071376;28;20040;-79
2022/03/31 02:51:58;;;;;;;4.30;1.38;;;;;;;;;;5071076;28;20048;-77
2022/03/31 02:57:09;;;;;;;7.32;1.60;;;;;;;;;;5070529;28;20041;-77
2022/03/31 02:59:35;;;;;;;3.35;1.60;;;;;;;;;;5070059;28;20036;-77
2022/03/31 03:02:01;;;;;;;4.65;1.75;;;;;;;;;;5069097;28;20125;-76
2022/03/31 03:04:27;;;;;;;5.10;1.40;;;;;;;;;;5069069;28;20564;-77
2022/03/31 03:06:54;;;;;;;5.85;1.23;;;;;;;;;;5052281;28;20036;-77
2022/03/31 03:09:20;;;;;;;3.97;1.40;;;;;;;;;;5068518;28;20048;-77
2022/03/31 03:11:46;;;;;;;4.60;1.45;;;;;;;;;;5069334;28;20040;-77
2022/03/31 03:14:13;;;;;;;4.28;1.50;;;;;;;;;;5051990;28;20067;-77
2022/03/31 03:16:40;;;;;;;4.28;1.60;;;;;;;;;;5068668;28;20044;-76
2022/03/31 03:19:06;;;;;;;3.85;1.42;;;;;;;;;;5068576;28;20048;-76
2022/03/31 03:21:33;;;;;;;4.75;1.70;;;;;;;;;;5052518;28;20736;-76
2022/03/31 03:23:59;;;;;;;4.50;1.77;;;;;;;;;;5068608;28;20036;-77
2022/03/31 03:26:25;;;;;;;5.40;1.73;;;;;;;;;;5067951;28;20029;-76
2022/03/31 03:28:51;;;;;;;8.73;1.98;;;;;;;;;;5052320;28;20455;-76
2022/03/31 03:31:17;;;;;;;7.05;1.75;;;;;;;;;;5068063;28;20048;-76
2022/03/31 03:33:43;;;;;;;4.95;1.50;;;;;;;;;;5051358;28;20040;-77
2022/03/31 03:36:12;;;;;;;5.63;1.73;;;;;;;;;;5067817;28;20556;-76
2022/03/31 03:38:39;;;;;;;5.18;1.85;;;;;;;;;;5068463;28;20132;-77
2022/03/31 03:41:05;;;;;;;6.13;2.08;;;;;;;;;;5069761;28;20111;-76
2022/03/31 03:43:32;;;;;;;6.22;1.77;;;;;;;;;;5051179;28;20114;-76
2022/03/31 03:45:58;;;;;;;3.95;1.50;;;;;;;;;;5068514;28;20089;-76
2022/03/31 03:48:24;;;;;;;8.63;2.08;;;;;;;;;;5068569;28;20515;-77
2022/03/31 03:50:50;;;;;;;3.67;1.67;;;;;;;;;;5051471;28;20086;-76
2022/03/31 03:53:16;;;;;;;7.20;1.77;;;;;;;;;;5067906;28;20059;-76
2022/03/31 03:55:42;;;;;;;5.00;1.92;;;;;;;;;;5068479;28;20424;-77
2022/03/31 03:58:08;;;;;;;6.93;2.25;;;;;;;;;;5067942;28;20110;-77
2022/03/31 04:00:36;;;;;;;4.95;1.80;;;;;;;;;;5048974;28;20075;-76
2022/03/31 04:03:02;;;;;;;5.90;2.75;;;;;;;;;;5067722;28;20087;-76
2022/03/31 04:05:28;;;;;;;6.13;2.30;;;;;;;;;;5067403;28;20488;-76
2022/03/31 04:07:54;;;;;;;7.50;2.38;;;;;;;;;;5067706;28;20072;-76
2022/03/31 04:10:20;;;;;;;5.05;2.42;;;;;;;;;;5067984;28;20090;-77
2022/03/31 04:12:46;;;;;;;7.78;2.42;;;;;;;;;;5068121;28;20044;-76
2022/03/31 04:15:13;;;;;;;6.65;2.40;;;;;;;;;;5068036;28;20383;-75
2022/03/31 04:17:40;;;;;;;8.27;2.60;;;;;;;;;;5068157;28;20064;-76
2022/03/31 04:20:07;;;;;;;7.68;2.58;;;;;;;;;;5069272;28;20114;-77
2022/03/31 04:22:33;;;;;;;5.25;2.70;;;;;;;;;;5051354;28;20037;-77
2022/03/31 04:25:00;;;;;;;6.22;2.80;;;;;;;;;;5068322;28;20033;-76
2022/03/31 04:27:26;;;;;;;8.07;3.28;;;;;;;;;;5067242;28;20035;-76
2022/03/31 04:29:52;;;;;;;6.05;3.42;;;;;;;;;;5067607;28;20151;-76
2022/03/31 04:32:18;;;;;;;7.97;3.22;;;;;;;;;;5051057;28;20097;-77
2022/03/31 04:34:44;;;;;;;6.68;3.38;;;;;;;;;;5068137;28;20041;-78
2022/03/31 04:37:10;;;;;;;10.15;3.67;;;;;;;;;;5067566;28;20036;-77
2022/03/31 04:39:36;;;;;;;6.80;3.35;;;;;;;;;;5051385;28;20044;-77
2022/03/31 04:42:02;;;;;;;6.60;3.60;;;;;;;;;;5067868;28;20044;-77
2022/03/31 04:44:29;;;;;;;8.88;3.90;;;;;;;;;;5065639;28;20120;-77
2022/03/31 04:46:55;;;;;;;7.40;4.10;;;;;;;;;;5067693;28;20033;-77
2022/03/31 04:49:21;;;;;;;8.75;4.18;;;;;;;;;;5067619;28;20051;-77
2022/03/31 04:51:47;;;;;;;7.00;3.75;;;;;;;;;;5068082;28;20051;-77
2022/03/31 04:54:13;;;;;;;8.63;4.20;;;;;;;;;;5068557;28;20040;-77
2022/03/31 04:56:39;;;;;;;6.65;4.20;;;;;;;;;;5071551;28;20047;-77
2022/03/31 04:59:06;;;;;;;6.70;4.13;;;;;;;;;;5071568;28;20129;-77
2022/03/31 05:01:32;;;;;;;6.35;3.67;;;;;;;;;;5071346;28;20082;-78
2022/03/31 05:03:58;;;;;;;7.22;3.95;;;;;;;;;;5071193;28;20060;-77
2022/03/31 05:06:24;;;;;;;7.70;4.32;;;;;;;;;;5071004;28;20082;-78
2022/03/31 05:08:50;;;;;;;8.25;4.53;;;;;;;;;;5054583;28;20044;-78
2022/03/31 05:11:17;;;;;;;7.50;4.32;;;;;;;;;;5071067;28;20044;-77
2022/03/31 05:13:43;;;;;;;8.70;4.35;;;;;;;;;;5071263;28;20464;-78
2022/03/31 05:16:09;;;;;;;8.35;4.63;;;;;;;;;;5071775;28;20487;-77
2022/03/31 05:18:35;;;;;;;6.50;4.47;;;;;;;;;;5070966;28;20044;-77
2022/03/31 05:21:01;;;;;;;7.10;4.65;;;;;;;;;;5071033;28;20044;-77
2022/03/31 05:23:28;;;;;;;8.40;4.57;;;;;;;;;;5053877;28;20116;-77
2022/03/31 05:25:54;;;;;;;9.05;5.00;;;;;;;;;;5071136;28;20460;-77
2022/03/31 05:28:21;;;;;;;8.60;4.78;;;;;;;;;;5053740;28;20037;-77
2022/03/31 05:30:47;;;;;;;9.43;5.50;;;;;;;;;;5070389;28;20060;-77
2022/03/31 05:33:13;;;;;;;7.32;4.95;;;;;;;;;;5070553;28;20099;-78
2022/03/31 05:35:39;;;;;;;7.75;5.53;;;;;;;;;;5070781;28;20044;-77
2022/03/31 05:38:06;;;;;;;6.40;4.30;;;;;;;;;;5070744;28;20123;-77
2022/03/31 05:40:33;;;;;;;5.28;3.78;;;;;;;;;;5054289;28;20071;-76
2022/03/31 05:42:59;;;;;;;5.80;4.03;;;;;;;;;;5070558;28;20043;-77
2022/03/31 05:45:25;;;;;;;5.82;3.97;;;;;;;;;;5070133;28;20041;-76
2022/03/31 05:47:52;;;;;;;5.30;3.88;;;;;;;;;;5069901;28;20051;-77
2022/03/31 05:50:19;;;;;;;5.13;3.72;;;;;;;;;;5069948;28;20040;-77
2022/03/31 05:52:45;;;;;;;6.30;3.78;;;;;;;;;;5053785;28;20429;-78
2022/03/31 05:55:12;;;;;;;6.05;3.90;;;;;;;;;;5036979;28;20036;-76
2022/03/31 05:57:39;;;;;;;5.35;3.72;;;;;;;;;;5070325;28;20048;-77
2022/03/31 06:00:06;;;;;;;5.90;4.10;;;;;;;;;;5070405;28;20125;-77
2022/03/31 06:02:32;;;;;;;4.95;3.55;;;;;;;;;;5054077;28;20040;-77
2022/03/31 06:04:58;;;;;;;6.47;4.13;;;;;;;;;;5071152;28;20116;-78
2022/03/31 06:07:24;;;;;;;6.03;4.07;;;;;;;;;;5071248;28;20047;-77
2022/03/31 06:09:50;;;;;;;5.88;3.92;;;;;;;;;;5053401;28;20046;-77
2022/03/31 06:12:17;;;;;;;5.75;4.10;;;;;;;;;;5053108;28;20500;-75
2022/03/31 06:14:43;;;;;;;5.50;4.22;;;;;;;;;;5069759;28;20040;-77
2022/03/31 06:17:09;;;;;;;6.07;4.30;;;;;;;;;;5070006;28;20063;-76
2022/03/31 06:19:36;;;;;;;5.97;4.13;;;;;;;;;;5069595;28;20097;-77
2022/03/31 06:22:02;;;;;;;5.78;4.10;;;;;;;;;;5069564;28;20036;-77
2022/03/31 06:24:28;;;;;;;5.38;3.88;;;;;;;;;;5068889;28;20136;-76
2022/03/31 06:26:57;;;;;;;5.28;3.53;;;;;;;;;;5069634;28;20507;-77
2022/03/31 06:29:25;;;;;;;5.93;4.13;;;;;;;;;;5036335;28;20056;-76
2022/03/31 06:31:53;;;;;;;5.78;4.22;;;;;;;;;;5069809;28;20059;-77
2022/03/31 06:34:19;;;;;;;6.15;4.43;;;;;;;;;;5053193;28;20101;-77
2022/03/31 06:36:46;;;;;;;5.90;4.18;;;;;;;;;;5069828;28;20040;-76
2022/03/31 06:39:13;;;;;;;6.20;4.40;;;;;;;;;;5069174;28;20377;-76
2022/03/31 06:41:39;;;;;;;5.55;4.32;;;;;;;;;;5069812;28;20040;-77
2022/03/31 06:44:08;;;;;;;6.07;4.70;;;;;;;;;;5069564;28;20040;-77
2022/03/31 06:46:34;;;;;;;6.88;4.53;;;;;;;;;;5052923;28;20039;-77
2022/03/31 06:49:01;;;;;;;5.40;3.95;;;;;;;;;;5069093;28;20071;-77
2022/03/31 06:51:28;;;;;;;6.75;4.60;;;;;;;;;;5052316;28;20037;-77
2022/03/31 06:53:59;;;;;;;6.45;4.95;;;;;;;;;;5069493;28;20040;-77
2022/03/31 06:56:27;;;;;;;7.80;4.75;;;;;;;;;;5068875;28;20049;-76
2022/03/31 06:58:56;;;;;;;7.82;5.45;;;;;;;;;;5052255;28;20123;-77
2022/03/31 07:01:23;;;;;;;9.20;5.97;;;;;;;;;;5069036;28;20492;-76
2022/03/31 07:03:51;;;;;;;6.68;5.10;;;;;;;;;;5052339;28;20040;-77
2022/03/31 07:06:17;;;;;;;7.05;5.30;;;;;;;;;;5067530;28;20454;-77
2022/03/31 07:08:43;;;;;;;6.57;5.00;;;;;;;;;;5068835;28;20044;-76
2022/03/31 07:11:10;;;;;;;6.82;4.88;;;;;;;;;;5068824;28;20048;-76
2022/03/31 07:13:36;;;;;;;7.18;5.50;;;;;;;;;;5069049;28;20075;-77
2022/03/31 07:16:03;;;;;;;7.45;4.70;;;;;;;;;;5052086;28;20052;-77
2022/03/31 07:18:29;;;;;;;6.85;5.40;;;;;;;;;;5068569;28;20040;-77
2022/03/31 07:20:57;;;;;;;6.28;4.85;;;;;;;;;;5069132;28;20496;-77
2022/03/31 07:23:25;;;;;;;7.75;4.40;;;;;;;;;;5052186;28;20037;-76
2022/03/31 07:25:52;;;;;;;6.53;5.05;;;;;;;;;;5052127;28;20029;-76
2022/03/31 07:28:18;;;;;;;6.65;4.55;;;;;;;;;;5068541;28;20034;-77
2022/03/31 07:30:44;;;;;;;6.43;4.63;;;;;;;;;;5051693;28;20065;-77
2022/03/31 07:33:10;;;;;;;6.20;4.45;;;;;;;;;;5069096;28;20503;-78
2022/03/31 07:35:44;;;;;;;5.70;4.18;;;;;;;;;;5068559;28;20036;-78
2022/03/31 07:38:11;;;;;;;5.85;4.60;;;;;;;;;;5068545;28;20033;-77
2022/03/31 07:40:37;;;;;;;5.75;4.15;;;;;;;;;;5051814;28;20133;-76
2022/03/31 07:43:04;;;;;;;5.68;4.30;;;;;;;;;;5069048;28;20361;-77
2022/03/31 07:45:34;;;;;;;5.65;3.85;;;;;;;;;;5051623;28;20610;-77
2022/03/31 07:48:00;;;;;;;6.53;4.10;;;;;;;;;;5069849;28;20044;-78
2022/03/31 07:50:26;;;;;;;5.40;4.20;;;;;;;;;;5051225;28;20173;-76
2022/03/31 07:52:53;;;;;;;5.88;4.25;;;;;;;;;;5070290;28;20048;-77
2022/03/31 07:55:22;;;;;;;5.82;4.38;;;;;;;;;;5051310;28;20040;-78
2022/03/31 07:57:49;;;;;;;6.00;4.50;;;;;;;;;;5067891;28;20063;-77
2022/03/31 08:00:15;;;;;;;5.50;4.07;;;;;;;;;;5067193;28;20040;-77
2022/03/31 08:02:49;;;;;;;5.95;4.40;;;;;;;;;;5068379;28;20116;-77
2022/03/31 08:05:16;;;;;;;6.47;4.45;;;;;;;;;;5068018;28;20059;-77
2022/03/31 08:07:42;;;;;;;7.07;4.60;;;;;;;;;;5068151;28;20089;-77
2022/03/31 08:10:08;;;;;;;6.32;4.18;;;;;;;;;;5034878;28;20036;-77
2022/03/31 08:12:35;;;;;;;6.28;4.55;;;;;;;;;;5051079;28;20049;-78
2022/03/31 08:15:01;;;;;;;6.07;4.50;;;;;;;;;;5068095;28;20048;-77
2022/03/31 08:17:28;;;;;;;5.95;4.78;;;;;;;;;;5068277;28;20464;-78
2022/03/31 08:19:54;;;;;;;5.38;4.20;;;;;;;;;;5068075;28;20052;-77
2022/03/31 08:22:23;;;;;;;6.55;4.82;;;;;;;;;;5074411;28;20033;-77
2022/03/31 08:24:49;;;;;;;6.63;4.68;;;;;;;;;;5069253;28;20107;-78
2022/03/31 08:27:15;;;;;;;6.00;4.78;;;;;;;;;;5067678;28;20040;-78
2022/03/31 08:29:42;;;;;;;5.85;4.63;;;;;;;;;;5071374;28;20043;-77
2022/03/31 08:32:08;;;;;;;6.68;5.05;;;;;;;;;;5072078;28;20056;-78
2022/03/31 08:34:35;;;;;;;6.63;4.57;;;;;;;;;;5072116;28;20404;-78
2022/03/31 08:37:01;;;;;;;6.30;4.80;;;;;;;;;;5071998;28;20101;-77
2022/03/31 08:39:27;;;;;;;7.57;5.47;;;;;;;;;;5054887;28;20151;-78
2022/03/31 08:41:54;;;;;;;6.50;5.10;;;;;;;;;;5071906;28;20243;-78
2022/03/31 08:44:21;;;;;;;6.75;5.32;;;;;;;;;;5071428;28;20407;-78
2022/03/31 08:46:47;;;;;;;6.72;5.30;;;;;;;;;;5071355;28;20037;-77
2022/03/31 08:49:13;;;;;;;7.18;5.35;;;;;;;;;;5054342;28;20040;-78
2022/03/31 08:51:39;;;;;;;7.05;5.40;;;;;;;;;;5071445;28;20102;-77
2022/03/31 08:54:08;;;;;;;7.72;5.30;;;;;;;;;;5071491;28;20036;-78
2022/03/31 08:56:34;;;;;;;6.82;5.38;;;;;;;;;;5071307;28;20048;-79
2022/03/31 08:59:00;;;;;;;7.63;5.72;;;;;;;;;;5054579;28;20045;-78
2022/03/31 09:01:28;;;;;;;9.40;6.00;;;;;;;;;;5071172;28;20035;-78
2022/03/31 09:03:54;;;;;;;7.72;6.07;;;;;;;;;;5071384;28;20045;-77
2022/03/31 09:06:30;;;;;;;6.97;5.15;;;;;;;;;;5070567;28;20032;-78
2022/03/31 09:08:56;;;;;;;;;;;;;;;;;;5071553;28;20037;-78
2022/03/31 09:11:26;;;;;;;6.60;5.47;;;;;;;;;;5070861;28;19920;-74
2022/03/31 09:13:54;;;;;;;6.43;5.18;;;;;;;;;;5071458;28;20404;-77
2022/03/31 09:16:28;;;;;;;6.57;5.10;;;;;;;;;;5070851;28;20051;-75
2022/03/31 09:18:59;;;;;;;6.88;5.15;;;;;;;;;;5071487;28;20396;-75
2022/03/31 09:21:25;;;;;;;6.45;4.95;;;;;;;;;;5071069;28;20036;-78
2022/03/31 09:23:52;;;;;;;6.70;5.05;;;;;;;;;;5071096;28;20263;-78
2022/03/31 09:26:18;;;;;;;6.82;5.18;;;;;;;;;;5072039;28;20116;-78
2022/03/31 09:28:45;;;;;;;6.75;4.93;;;;;;;;;;5054440;28;20483;-80
2022/03/31 09:31:12;;;;;;;6.22;5.10;;;;;;;;;;5070459;28;20048;-78
2022/03/31 09:33:48;;;;;;;6.97;4.80;;;;;;;;;;5070807;28;20120;-79
2022/03/31 09:36:22;;;;;;;5.85;4.60;;;;;;;;;;5070207;28;20047;-80
2022/03/31 09:38:51;;;;;;;7.78;5.15;;;;;;;;;;5070420;28;20037;-78
2022/03/31 09:41:19;;;;;;;6.75;4.32;;;;;;;;;;5069341;28;20036;-80
2022/03/31 09:43:46;;;;;;;6.68;5.10;;;;;;;;;;5072153;28;20036;-80
2022/03/31 09:46:29;;;;;;;5.82;4.65;;;;;;;;;;5053671;28;20120;-80
2022/03/31 09:48:56;;;;;;;5.60;4.43;;;;;;;;;;5053952;28;20048;-80
2022/03/31 09:51:23;;;;;;;5.65;4.35;;;;;;;;;;5070032;28;20036;-78
2022/03/31 09:53:50;;;;;;;6.30;4.47;;;;;;;;;;5070627;28;20121;-81
2022/03/31 09:56:17;;;;;;;5.63;3.47;;;;;;;;;;5053387;28;20044;-78
2022/03/31 09:58:44;;;;;;;5.13;3.75;;;;;;;;;;5051406;28;20041;-76
2022/03/31 10:01:11;;;;;;;4.55;3.45;;;;;;;;;;5070179;28;21207;-75
2022/03/31 10:03:40;;;;;;;4.32;3.30;;;;;;;;;;5070439;28;20101;-78
2022/03/31 10:06:07;;;;;;;4.60;3.20;;;;;;;;;;5053902;28;20436;-76
2022/03/31 10:08:38;;;;;;;4.13;2.88;;;;;;;;;;5070555;28;20176;-77
2022/03/31 10:11:04;;;;;;;4.30;2.80;;;;;;;;;;5058162;28;20400;-76
2022/03/31 10:13:36;;;;;;;4.22;2.75;;;;;;;;;;5070219;28;20047;-78
2022/03/31 10:16:13;;;;;;;3.78;2.47;;;;;;;;;;5070676;28;20392;-75
2022/03/31 10:18:40;;;;;;;3.63;2.40;;;;;;;;;;5070485;28;20456;-78
2022/03/31 10:21:07;;;;;;;3.88;2.78;;;;;;;;;;5053715;28;20040;-78
2022/03/31 10:26:28;;;;;;;4.10;2.90;;;;;;;;;;5069797;28;20133;-79
2022/03/31 10:28:59;;;;;;;4.63;3.13;;;;;;;;;;5070384;28;20044;-78
2022/03/31 10:31:42;;;;;;;4.80;3.45;;;;;;;;;;5036116;28;20083;-77
2022/03/31 10:34:09;;;;;;;5.25;3.47;;;;;;;;;;5069891;28;20040;-77
2022/03/31 10:36:47;;;;;;;5.07;3.72;;;;;;;;;;5069321;28;20066;-79
2022/03/31 10:39:23;;;;;;;7.22;4.10;;;;;;;;;;5068434;28;20036;-75
2022/03/31 10:42:03;;;;;;;5.82;4.00;;;;;;;;;;5069654;28;20133;-76
2022/03/31 10:44:29;;;;;;;6.55;4.60;;;;;;;;;;5068812;28;20036;-78
2022/03/31 10:47:00;;;;;;;7.28;4.75;;;;;;;;;;5069463;28;20086;-77
2022/03/31 10:49:27;;;;;;;7.30;5.10;;;;;;;;;;5069383;28;20474;-76
2022/03/31 10:51:53;;;;;;;8.35;5.32;;;;;;;;;;5052660;28;20483;-77
2022/03/31 10:54:27;;;;;;;9.20;5.53;;;;;;;;;;5069257;28;20040;-74
2022/03/31 10:57:07;;;;;;;9.13;5.60;;;;;;;;;;5069307;28;20086;-78
2022/03/31 10:59:34;;;;;;;9.00;5.70;;;;;;;;;;5068692;28;20455;-79
2022/03/31 11:02:11;;;;;;;8.25;5.28;;;;;;;;;;5069237;28;20387;-77
2022/03/31 11:04:45;;;;;;;8.10;5.22;;;;;;;;;;5069089;28;20040;-76
2022/03/31 11:07:22;;;;;;;8.40;5.38;;;;;;;;;;5069092;28;20047;-78
2022/03/31 11:09:48;;;;;;;8.32;5.22;;;;;;;;;;5052612;28;20572;-78
2022/03/31 11:12:22;;;;;;;8.90;4.93;;;;;;;;;;5051820;28;20045;-77
2022/03/31 11:15:00;;;;;;;7.82;5.10;;;;;;;;;;5069142;28;20043;-78
2022/03/31 11:17:27;;;;;;;7.78;5.00;;;;;;;;;;5068528;28;20045;-78
2022/03/31 11:19:55;;;;;;;6.88;4.55;;;;;;;;;;5069096;28;20128;-78
2022/03/31 11:22:22;;;;;;;7.05;4.60;;;;;;;;;;5070204;28;20032;-79
2022/03/31 11:24:50;;;;;;;6.50;4.35;;;;;;;;;;5069056;28;20055;-78
2022/03/31 11:27:17;;;;;;;8.00;4.65;;;;;;;;;;5069051;28;20044;-78
2022/03/31 11:29:43;;;;;;;7.88;4.93;;;;;;;;;;5077296;28;20043;-79
2022/03/31 11:32:11;;;;;;;7.95;5.07;;;;;;;;;;5085500;28;20045;-80
2022/03/31 11:34:37;;;;;;;8.13;5.13;;;;;;;;;;5058029;28;20078;-81
2022/03/31 11:37:03;;;;;;;7.50;4.72;;;;;;;;;;5053022;28;20048;-80
2022/03/31 11:39:29;;;;;;;8.00;4.55;;;;;;;;;;5068896;28;20036;-80
2022/03/31 11:41:56;;;;;;;7.25;4.47;;;;;;;;;;5069308;28;20087;-80
2022/03/31 11:44:26;;;;;;;7.75;4.60;;;;;;;;;;5035341;28;20034;-79
2022/03/31 11:46:52;;;;;;;7.95;4.88;;;;;;;;;;5068909;28;20068;-79
2022/03/31 11:49:26;;;;;;;8.18;4.95;;;;;;;;;;5068243;28;20045;-80
2022/03/31 11:51:59;;;;;;;6.30;4.30;;;;;;;;;;5069968;28;20476;-77
2022/03/31 11:54:27;;;;;;;8.00;4.72;;;;;;;;;;5068327;28;20068;-77
2022/03/31 11:57:03;;;;;;;8.27;5.43;;;;;;;;;;5069497;28;20040;-79
2022/03/31 11:59:29;;;;;;;7.90;4.97;;;;;;;;;;5068029;28;20048;-77
2022/03/31 12:01:56;;;;;;;7.35;4.80;;;;;;;;;;5068243;28;20036;-78
2022/03/31 12:04:31;;;;;;;8.13;4.88;;;;;;;;;;5051010;28;20384;-77
2022/03/31 12:06:58;;;;;;;10.15;4.90;;;;;;;;;;5051804;28;20041;-77
2022/03/31 12:09:26;;;;;;;7.13;4.50;;;;;;;;;;5051807;28;20040;-77
2022/03/31 12:11:56;;;;;;;6.93;4.60;;;;;;;;;;5068587;28;20063;-78
2022/03/31 12:14:22;;;;;;;6.68;4.22;;;;;;;;;;5067948;28;20043;-79
2022/03/31 12:16:52;;;;;;;6.38;4.20;;;;;;;;;;5068287;28;20492;-78
2022/03/31 12:19:19;;;;;;;6.65;4.20;;;;;;;;;;5067654;28;20443;-78
2022/03/31 12:21:49;;;;;;;5.97;4.00;;;;;;;;;;5068050;28;20420;-76
2022/03/31 12:24:16;;;;;;;7.18;4.25;;;;;;;;;;5068012;28;20040;-77
2022/03/31 12:26:55;;;;;;;6.40;3.85;;;;;;;;;;5051436;28;20036;-78
2022/03/31 12:29:26;;;;;;;5.72;3.83;;;;;;;;;;5068028;28;20041;-78
2022/03/31 12:32:12;;;;;;;7.35;3.80;;;;;;;;;;5068000;28;20061;-77
2022/03/31 12:34:40;;;;;;;5.45;3.70;;;;;;;;;;5067805;28;20082;-78
2022/03/31 12:37:06;;;;;;;6.15;4.32;;;;;;;;;;5068499;28;20573;-78
2022/03/31 12:39:43;;;;;;;6.60;4.20;;;;;;;;;;5067551;28;20044;-77
2022/03/31 12:42:10;;;;;;;5.53;4.10;;;;;;;;;;5051184;28;20033;-78
2022/03/31 12:44:41;;;;;;;6.05;4.00;;;;;;;;;;5067294;28;20033;-78
2022/03/31 12:47:09;;;;;;;7.15;3.97;;;;;;;;;;5051211;28;20037;-77
2022/03/31 12:49:36;;;;;;;6.10;4.40;;;;;;;;;;5067655;28;20056;-80
2022/03/31 12:52:04;;;;;;;5.15;3.75;;;;;;;;;;5067786;28;20040;-76
2022/03/31 12:54:33;;;;;;;4.90;3.80;;;;;;;;;;5067565;28;20129;-76
2022/03/31 12:57:01;;;;;;;5.80;4.00;;;;;;;;;;5051483;28;20040;-75
2022/03/31 12:59:30;;;;;;;5.13;3.83;;;;;;;;;;5067363;28;20048;-77
2022/03/31 13:01:59;;;;;;;5.82;3.92;;;;;;;;;;5067873;28;20128;-76
2022/03/31 13:04:25;;;;;;;5.57;3.67;;;;;;;;;;5067350;28;20083;-87
2022/03/31 13:06:51;;;;;;;6.40;4.05;;;;;;;;;;5068413;28;20040;-83
2022/03/31 13:09:18;;;;;;;5.25;4.03;;;;;;;;;;5068035;28;20466;-86
2022/03/31 13:11:44;;;;;;;5.80;3.75;;;;;;;;;;5069366;28;20040;-81
2022/03/31 13:14:10;;;;;;;5.55;3.90;;;;;;;;;;5067635;28;20033;-86
2022/03/31 13:16:37;;;;;;;6.32;4.32;;;;;;;;;;5070836;28;20048;-87
2022/03/31 13:19:03;;;;;;;6.10;4.20;;;;;;;;;;5070941;28;20151;-82
2022/03/31 13:21:30;;;;;;;8.48;5.25;;;;;;;;;;5070874;28;20043;-82
2022/03/31 13:23:56;;;;;;;8.18;4.57;;;;;;;;;;5070822;28;20033;-80
2022/03/31 13:26:22;;;;;;;8.02;5.25;;;;;;;;;;5054581;28;20097;-81
2022/03/31 13:28:48;;;;;;;7.18;4.70;;;;;;;;;;5070948;28;20086;-82
2022/03/31 13:31:14;;;;;;;7.15;4.60;;;;;;;;;;5070912;28;20053;-82
2022/03/31 13:33:40;;;;;;;7.00;4.32;;;;;;;;;;5069735;28;20044;-82
2022/03/31 13:36:06;;;;;;;6.13;4.30;;;;;;;;;;5071141;28;20406;-85
2022/03/31 13:38:34;;;;;;;6.55;4.50;;;;;;;;;;5070535;28;20040;-82
2022/03/31 13:41:01;;;;;;;7.63;4.38;;;;;;;;;;5054101;28;20047;-81
2022/03/31 13:43:28;;;;;;;6.55;4.25;;;;;;;;;;5054020;28;20051;-81
2022/03/31 13:45:54;;;;;;;6.55;4.35;;;;;;;;;;5054093;28;20081;-80
2022/03/31 13:48:21;;;;;;;6.35;4.50;;;;;;;;;;5053318;28;20119;-81
2022/03/31 13:50:47;;;;;;;6.38;4.53;;;;;;;;;;5054116;28;20590;-79
2022/03/31 13:55:58;;;;;;;7.07;4.55;;;;;;;;;;5056332;28;20049;-79
2022/03/31 14:01:13;;;;;;;7.25;5.13;;;;;;;;;;5070777;28;20365;-81
2022/03/31 14:03:42;;;;;;;7.50;5.15;;;;;;;;;;5070232;28;20393;-85
2022/03/31 14:06:09;;;;;;;7.70;5.38;;;;;;;;;;5070365;28;20044;-86
2022/03/31 14:08:35;;;;;;;7.57;5.50;;;;;;;;;;5070312;28;20120;-85
2022/03/31 14:11:05;;;;;;;8.73;5.70;;;;;;;;;;5053485;28;20032;-88
2022/03/31 14:13:32;;;;;;;8.40;6.32;;;;;;;;;;5071475;28;20515;-85
2022/03/31 14:16:02;;;;;;;8.77;6.38;;;;;;;;;;5071063;28;20039;-86
2022/03/31 14:18:29;;;;;;;9.93;7.07;;;;;;;;;;5068675;28;20568;-82
2022/03/31 14:20:55;;;;;;;10.85;7.22;;;;;;;;;;5070640;28;20032;-82
2022/03/31 14:23:21;;;;;;;9.63;7.50;;;;;;;;;;5070301;28;20033;-84
2022/03/31 14:25:48;;;;;;;11.57;8.15;;;;;;;;;;5070680;28;20106;-81
2022/03/31 14:28:14;;;;;;;11.32;7.97;;;;;;;;;;5070397;28;20037;-82
2022/03/31 14:30:42;;;;;;;13.60;8.63;;;;;;;;;;5070268;28;20127;-84
2022/03/31 14:33:09;;;;;;;13.45;9.52;;;;;;;;;;5070537;28;20361;-84
2022/03/31 14:35:35;;;;;;;13.23;9.10;;;;;;;;;;5069808;28;20511;-85
2022/03/31 14:38:01;;;;;;;14.95;10.63;;;;;;;;;;5053394;28;20459;-88
2022/03/31 14:40:28;;;;;;;15.38;10.23;;;;;;;;;;5069548;28;20040;-88
2022/03/31 14:42:54;;;;;;;14.77;10.65;;;;;;;;;;5069625;28;20033;-88
2022/03/31 14:45:21;;;;;;;17.05;11.18;;;;;;;;;;5070277;28;20043;-86
2022/03/31 14:47:48;;;;;;;16.10;11.15;;;;;;;;;;5069860;28;20036;-88
2022/03/31 14:50:14;;;;;;;17.65;11.48;;;;;;;;;;5070263;28;20454;-92
2022/03/31 14:52:40;;;;;;;16.15;10.95;;;;;;;;;;5070218;28;20486;-83
2022/03/31 14:55:07;;;;;;;17.40;11.85;;;;;;;;;;5071148;28;20404;-89